[source: ADDS]
METAR
EDMA 231850Z 05004KT CAVOK 13/06 Q1018 RMK ATIS WHI =
TAF
SR / SS: 04:10 / 18:23 UTC (Referenz EDMA 2014-04-24)
Start Anfahrt

PostHeaderIcon Anfahrt auf die Irpfel

Anfahrt auf die Irpfel hoch.

Sie möchten zu uns zu Fuß mit dem Fahrrad, Motorrad oder Auto besuchen kommen, kein Problem wir zeigen wie, mittels Lageplan, Karte und mit Google Maps.

Anfahrtsbeschreibung


Hier die Informationen aus Google Maps, die Darstellung der Karte erfolgt in einem externen Fenster.